Terminal Aerodrome Forecast
Issued by NWS Grand Forks, ND

Home | Current Version | Previous Version | Graphics & Text | Print | Product List | Glossary On
Versions: 1 2 3 4 5 6 7 8 9 10 11 12 13 14 15 16 17 18 19 20 21 22
281
FTUS43 KFGF 171736
TAFGFK
TAF
KGFK 171736Z 1718/1818 12013G22KT P6SM TSRA BKN050CB
     FM171900 12014G22KT P6SM VCSH OVC100
     FM180800 11011KT P6SM OVC060
     FM181000 11011KT P6SM OVC030
     FM181200 08008KT P6SM VCSH BKN060
     FM181600 08008KT P6SM VCSH OVC025=

USA.gov is the U.S. government's official web portal to all federal, state and local government web resources and services.